EWG1WJ EDDS-EDDH
Flight info
| Callsign | EWG1WJ |
|---|---|
| Flight time | 0h 54m |
| Altitude | 36000 |
| Route | OKIBA4H OKIBA N851 RIMKI Z99 LOHRE DCT MASEK DCT ELNAT P605 NOLGO NOLGO3D |
| Aircraft | A319/M-SDE3FGHIRWY/LB1 |
Departure
| Time | 2026-05-01 14:33 |
|---|---|
| Airport | Stuttgart Airport (EDDS) |
Arrival
| Time | 2026-05-01 15:28 |
|---|---|
| Airport | Hamburg Helmut Schmidt Airport (EDDH) |
| Time | Latitude | Longitude | Altitude | Speed | Heading |
|---|---|---|---|---|---|
| 2026-05-01 13:55 | 48.68915 | 9.19512 | 1315 ft | 0 kts | 344° |
| 2026-05-01 14:15 | 48.68897 | 9.19520 | 1314 ft | 4 kts | 344° |
| 2026-05-01 14:15 | 48.68872 | 9.19531 | 1313 ft | 3 kts | 344° |
| 2026-05-01 14:15 | 48.68850 | 9.19538 | 1311 ft | 4 kts | 14° |
| 2026-05-01 14:16 | 48.68833 | 9.19517 | 1311 ft | 4 kts | 69° |
| 2026-05-01 14:16 | 48.68825 | 9.19481 | 1312 ft | 4 kts | 74° |
| 2026-05-01 14:16 | 48.68818 | 9.19441 | 1312 ft | 4 kts | 74° |
| 2026-05-01 14:16 | 48.68814 | 9.19420 | 1313 ft | 1 kts | 74° |
| 2026-05-01 14:20 | 48.68810 | 9.19426 | 1313 ft | 1 kts | 124° |
| 2026-05-01 14:20 | 48.68783 | 9.19447 | 1311 ft | 6 kts | 162° |
| 2026-05-01 14:21 | 48.68765 | 9.19455 | 1310 ft | 3 kts | 163° |
| 2026-05-01 14:21 | 48.68763 | 9.19456 | 1310 ft | 0 kts | 163° |
| 2026-05-01 14:22 | 48.68758 | 9.19458 | 1310 ft | 3 kts | 163° |
| 2026-05-01 14:22 | 48.68721 | 9.19475 | 1308 ft | 9 kts | 162° |
| 2026-05-01 14:22 | 48.68704 | 9.19575 | 1304 ft | 14 kts | 72° |
| 2026-05-01 14:22 | 48.68737 | 9.19743 | 1299 ft | 18 kts | 73° |
| 2026-05-01 14:23 | 48.68761 | 9.19865 | 1296 ft | 4 kts | 76° |
| 2026-05-01 14:23 | 48.68760 | 9.19919 | 1295 ft | 1 kts | 105° |
| 2026-05-01 14:23 | 48.68756 | 9.19929 | 1294 ft | 0 kts | 119° |
| 2026-05-01 14:26 | 48.68740 | 9.19958 | 1292 ft | 7 kts | 139° |
| 2026-05-01 14:26 | 48.68706 | 9.19976 | 1290 ft | 0 kts | 164° |
| 2026-05-01 14:28 | 48.68705 | 9.19977 | 1290 ft | 2 kts | 164° |
| 2026-05-01 14:28 | 48.68673 | 9.19990 | 1288 ft | 0 kts | 164° |
| 2026-05-01 14:30 | 48.68673 | 9.19991 | 1288 ft | 0 kts | 164° |
| 2026-05-01 14:31 | 48.68661 | 9.19996 | 1287 ft | 5 kts | 164° |
| 2026-05-01 14:32 | 48.68596 | 9.20026 | 1286 ft | 13 kts | 149° |
| 2026-05-01 14:32 | 48.68590 | 9.20104 | 1283 ft | 0 kts | 73° |
| 2026-05-01 14:32 | 48.68594 | 9.20123 | 1283 ft | 12 kts | 73° |
| 2026-05-01 14:33 | 48.68681 | 9.20580 | 1272 ft | 80 kts | 75° |
| 2026-05-01 14:33 | 48.68893 | 9.21699 | 1257 ft | 140 kts | 74° |
| 2026-05-01 14:33 | 48.69196 | 9.23278 | 1587 ft | 159 kts | 75° |
| 2026-05-01 14:33 | 48.69505 | 9.24878 | 2343 ft | 158 kts | 75° |
| 2026-05-01 14:34 | 48.69823 | 9.26578 | 2804 ft | 179 kts | 75° |
| 2026-05-01 14:34 | 48.70168 | 9.28494 | 3193 ft | 199 kts | 76° |
| 2026-05-01 14:34 | 48.70551 | 9.30628 | 3554 ft | 224 kts | 76° |
| 2026-05-01 14:34 | 48.70994 | 9.33064 | 3972 ft | 254 kts | 77° |
| 2026-05-01 14:35 | 48.71478 | 9.35653 | 5035 ft | 258 kts | 76° |
| 2026-05-01 14:35 | 48.72406 | 9.38056 | 5931 ft | 275 kts | 45° |
| 2026-05-01 14:35 | 48.74115 | 9.39357 | 6920 ft | 287 kts | 11° |
| 2026-05-01 14:35 | 48.76136 | 9.39375 | 7918 ft | 290 kts | 359° |
| 2026-05-01 14:36 | 48.78163 | 9.39302 | 8951 ft | 294 kts | 1° |
| 2026-05-01 14:36 | 48.80223 | 9.39340 | 9939 ft | 299 kts | 3° |
| 2026-05-01 14:36 | 48.82329 | 9.39453 | 10672 ft | 311 kts | 4° |
| 2026-05-01 14:36 | 48.84571 | 9.39611 | 11030 ft | 334 kts | 5° |
| 2026-05-01 14:37 | 48.86942 | 9.39794 | 11619 ft | 345 kts | 4° |
| 2026-05-01 14:37 | 48.89355 | 9.39979 | 12419 ft | 350 kts | 5° |
| 2026-05-01 14:37 | 48.91798 | 9.40167 | 13247 ft | 353 kts | 5° |
| 2026-05-01 14:37 | 48.94256 | 9.40350 | 14108 ft | 355 kts | 5° |
| 2026-05-01 14:38 | 48.96740 | 9.40530 | 14840 ft | 358 kts | 5° |
| 2026-05-01 14:38 | 48.99241 | 9.40707 | 15558 ft | 362 kts | 4° |
| 2026-05-01 14:38 | 49.01766 | 9.40880 | 16278 ft | 365 kts | 4° |
| 2026-05-01 14:38 | 49.04316 | 9.41055 | 16999 ft | 368 kts | 4° |
| 2026-05-01 14:39 | 49.06884 | 9.41234 | 17712 ft | 372 kts | 5° |
| 2026-05-01 14:39 | 49.09480 | 9.41418 | 18421 ft | 375 kts | 4° |
| 2026-05-01 14:39 | 49.12098 | 9.41604 | 19054 ft | 379 kts | 4° |
| 2026-05-01 14:39 | 49.14636 | 9.41785 | 19657 ft | 381 kts | 5° |
| 2026-05-01 14:40 | 49.17397 | 9.41982 | 20323 ft | 384 kts | 4° |
| 2026-05-01 14:40 | 49.20080 | 9.42177 | 20972 ft | 387 kts | 4° |
| 2026-05-01 14:40 | 49.22768 | 9.42372 | 21611 ft | 389 kts | 4° |
| 2026-05-01 14:40 | 49.25354 | 9.42557 | 22221 ft | 391 kts | 4° |
| 2026-05-01 14:41 | 49.28132 | 9.42752 | 22847 ft | 394 kts | 4° |
| 2026-05-01 14:41 | 49.30877 | 9.42947 | 23467 ft | 396 kts | 4° |
| 2026-05-01 14:41 | 49.33569 | 9.43142 | 24032 ft | 398 kts | 4° |
| 2026-05-01 14:41 | 49.36346 | 9.43342 | 24504 ft | 401 kts | 4° |
| 2026-05-01 14:42 | 49.39144 | 9.43546 | 25005 ft | 403 kts | 4° |
| 2026-05-01 14:42 | 49.41983 | 9.43757 | 25206 ft | 414 kts | 4° |
| 2026-05-01 14:42 | 49.44898 | 9.43972 | 25329 ft | 425 kts | 4° |
| 2026-05-01 14:42 | 49.47889 | 9.44189 | 25453 ft | 435 kts | 4° |
| 2026-05-01 14:43 | 49.50923 | 9.44408 | 25581 ft | 444 kts | 4° |
| 2026-05-01 14:43 | 49.54035 | 9.44632 | 25703 ft | 452 kts | 4° |
| 2026-05-01 14:43 | 49.57208 | 9.44859 | 25827 ft | 459 kts | 4° |
| 2026-05-01 14:43 | 49.60370 | 9.45084 | 25956 ft | 466 kts | 4° |
| 2026-05-01 14:44 | 49.63625 | 9.45315 | 26093 ft | 471 kts | 4° |
| 2026-05-01 14:44 | 49.70192 | 9.45784 | 26694 ft | 473 kts | 4° |
| 2026-05-01 14:44 | 49.73469 | 9.46024 | 27115 ft | 471 kts | 4° |
| 2026-05-01 14:45 | 49.76697 | 9.46263 | 27501 ft | 470 kts | 4° |
| 2026-05-01 14:45 | 49.83210 | 9.46775 | 28360 ft | 468 kts | 4° |
| 2026-05-01 14:45 | 49.86459 | 9.47034 | 28743 ft | 468 kts | 3° |
| 2026-05-01 14:46 | 49.89694 | 9.47292 | 29196 ft | 466 kts | 3° |
| 2026-05-01 14:46 | 49.96053 | 9.47798 | 30098 ft | 464 kts | 3° |
| 2026-05-01 14:46 | 49.99274 | 9.48053 | 30575 ft | 462 kts | 3° |
| 2026-05-01 14:47 | 50.02486 | 9.48308 | 30969 ft | 461 kts | 3° |
| 2026-05-01 14:47 | 50.05592 | 9.48553 | 31374 ft | 460 kts | 3° |
| 2026-05-01 14:47 | 50.08721 | 9.48855 | 31791 ft | 458 kts | 4° |
| 2026-05-01 14:48 | 50.15062 | 9.49853 | 32670 ft | 455 kts | 6° |
| 2026-05-01 14:48 | 50.18248 | 9.50454 | 33102 ft | 454 kts | 6° |
| 2026-05-01 14:48 | 50.24396 | 9.51604 | 34051 ft | 450 kts | 6° |
| 2026-05-01 14:49 | 50.30540 | 9.52667 | 34855 ft | 448 kts | 5° |
| 2026-05-01 14:49 | 50.36734 | 9.53686 | 35594 ft | 447 kts | 5° |
| 2026-05-01 14:50 | 50.40863 | 9.54372 | 36119 ft | 446 kts | 5° |
| 2026-05-01 14:50 | 50.49078 | 9.55766 | 36342 ft | 446 kts | 5° |
| 2026-05-01 14:51 | 50.58350 | 9.57348 | 36340 ft | 448 kts | 5° |
| 2026-05-01 14:52 | 50.67639 | 9.58943 | 36339 ft | 448 kts | 5° |
| 2026-05-01 14:53 | 50.76914 | 9.60558 | 36335 ft | 447 kts | 5° |
| 2026-05-01 14:53 | 50.83086 | 9.61762 | 36330 ft | 447 kts | 6° |
| 2026-05-01 14:54 | 50.89193 | 9.62979 | 36322 ft | 447 kts | 6° |
| 2026-05-01 14:54 | 50.95394 | 9.64200 | 36330 ft | 447 kts | 6° |
| 2026-05-01 14:55 | 51.01576 | 9.65404 | 36327 ft | 448 kts | 6° |
| 2026-05-01 14:55 | 51.07765 | 9.66608 | 36327 ft | 448 kts | 6° |
| 2026-05-01 14:56 | 51.13957 | 9.67823 | 36326 ft | 448 kts | 6° |
| 2026-05-01 14:56 | 51.20136 | 9.69038 | 36331 ft | 448 kts | 6° |
| 2026-05-01 14:57 | 51.26318 | 9.70141 | 36328 ft | 448 kts | 5° |
| 2026-05-01 14:57 | 51.35579 | 9.71576 | 36321 ft | 448 kts | 5° |
| 2026-05-01 14:58 | 51.41795 | 9.72562 | 36327 ft | 449 kts | 5° |
| 2026-05-01 14:58 | 51.48012 | 9.73577 | 36324 ft | 449 kts | 5° |
| 2026-05-01 14:59 | 51.54222 | 9.74710 | 36324 ft | 449 kts | 6° |
| 2026-05-01 14:59 | 51.59380 | 9.75724 | 36306 ft | 449 kts | 7° |
| 2026-05-01 15:00 | 51.65502 | 9.76991 | 35655 ft | 451 kts | 7° |
| 2026-05-01 15:00 | 51.68701 | 9.77652 | 35402 ft | 452 kts | 7° |
| 2026-05-01 15:00 | 51.71834 | 9.78298 | 35159 ft | 453 kts | 7° |
| 2026-05-01 15:01 | 51.74964 | 9.78944 | 34914 ft | 454 kts | 7° |
| 2026-05-01 15:01 | 51.78079 | 9.79583 | 34678 ft | 455 kts | 7° |
| 2026-05-01 15:01 | 51.81230 | 9.80228 | 34444 ft | 456 kts | 7° |
| 2026-05-01 15:01 | 51.84374 | 9.80869 | 34302 ft | 456 kts | 7° |
| 2026-05-01 15:02 | 51.87531 | 9.81508 | 34354 ft | 457 kts | 7° |
| 2026-05-01 15:02 | 51.93809 | 9.82784 | 34210 ft | 459 kts | 7° |
| 2026-05-01 15:02 | 51.96966 | 9.83437 | 33628 ft | 459 kts | 7° |
| 2026-05-01 15:03 | 52.00137 | 9.84093 | 33065 ft | 460 kts | 7° |
| 2026-05-01 15:03 | 52.03319 | 9.84752 | 32509 ft | 461 kts | 7° |
| 2026-05-01 15:03 | 52.06502 | 9.85413 | 31967 ft | 462 kts | 7° |
| 2026-05-01 15:03 | 52.09694 | 9.86076 | 31436 ft | 464 kts | 8° |
| 2026-05-01 15:04 | 52.12902 | 9.86743 | 30912 ft | 465 kts | 8° |
| 2026-05-01 15:04 | 52.16110 | 9.87409 | 30394 ft | 467 kts | 8° |
| 2026-05-01 15:04 | 52.19351 | 9.88085 | 29794 ft | 470 kts | 8° |
| 2026-05-01 15:04 | 52.22595 | 9.88763 | 29199 ft | 472 kts | 8° |
| 2026-05-01 15:05 | 52.25867 | 9.89447 | 28618 ft | 474 kts | 8° |
| 2026-05-01 15:05 | 52.29147 | 9.90134 | 28050 ft | 475 kts | 8° |
| 2026-05-01 15:05 | 52.32411 | 9.90820 | 27495 ft | 472 kts | 8° |
| 2026-05-01 15:05 | 52.35662 | 9.91503 | 26949 ft | 469 kts | 8° |
| 2026-05-01 15:06 | 52.38895 | 9.92182 | 26414 ft | 466 kts | 8° |
| 2026-05-01 15:06 | 52.42094 | 9.92852 | 25841 ft | 461 kts | 8° |
| 2026-05-01 15:06 | 52.45258 | 9.93514 | 25192 ft | 457 kts | 8° |
| 2026-05-01 15:06 | 52.48404 | 9.94174 | 24709 ft | 455 kts | 8° |
| 2026-05-01 15:07 | 52.51540 | 9.94834 | 24241 ft | 453 kts | 8° |
| 2026-05-01 15:07 | 52.54654 | 9.95495 | 23750 ft | 449 kts | 8° |
| 2026-05-01 15:07 | 52.57746 | 9.96155 | 23201 ft | 447 kts | 9° |
| 2026-05-01 15:07 | 52.60820 | 9.96806 | 22662 ft | 445 kts | 8° |
| 2026-05-01 15:08 | 52.63877 | 9.97448 | 22135 ft | 442 kts | 8° |
| 2026-05-01 15:08 | 52.66918 | 9.98090 | 21614 ft | 440 kts | 8° |
| 2026-05-01 15:08 | 52.69942 | 9.98734 | 21101 ft | 436 kts | 8° |
| 2026-05-01 15:08 | 52.72906 | 9.99367 | 20603 ft | 434 kts | 8° |
| 2026-05-01 15:09 | 52.75893 | 10.00008 | 20108 ft | 432 kts | 8° |
| 2026-05-01 15:09 | 52.78864 | 10.00648 | 19624 ft | 429 kts | 8° |
| 2026-05-01 15:09 | 52.81819 | 10.01285 | 19148 ft | 427 kts | 8° |
| 2026-05-01 15:09 | 52.84763 | 10.01918 | 18676 ft | 425 kts | 8° |
| 2026-05-01 15:10 | 52.87682 | 10.02543 | 18150 ft | 422 kts | 8° |
| 2026-05-01 15:10 | 52.93474 | 10.03783 | 17103 ft | 417 kts | 8° |
| 2026-05-01 15:10 | 52.96339 | 10.04396 | 16592 ft | 415 kts | 8° |
| 2026-05-01 15:11 | 52.99193 | 10.05007 | 16086 ft | 412 kts | 8° |
| 2026-05-01 15:11 | 53.04862 | 10.06228 | 15112 ft | 408 kts | 8° |
| 2026-05-01 15:11 | 53.07676 | 10.06837 | 14869 ft | 408 kts | 8° |
| 2026-05-01 15:12 | 53.10493 | 10.07451 | 14628 ft | 408 kts | 8° |
| 2026-05-01 15:12 | 53.16102 | 10.08681 | 14151 ft | 406 kts | 8° |
| 2026-05-01 15:12 | 53.18866 | 10.09280 | 13892 ft | 405 kts | 8° |
| 2026-05-01 15:13 | 53.27204 | 10.11091 | 13104 ft | 401 kts | 8° |
| 2026-05-01 15:14 | 53.32683 | 10.12280 | 12587 ft | 386 kts | 8° |
| 2026-05-01 15:14 | 53.35277 | 10.12738 | 12420 ft | 369 kts | 1° |
| 2026-05-01 15:14 | 53.40143 | 10.11553 | 12167 ft | 338 kts | 349° |
| 2026-05-01 15:15 | 53.44622 | 10.10193 | 11827 ft | 319 kts | 349° |
| 2026-05-01 15:15 | 53.48969 | 10.08857 | 11359 ft | 316 kts | 349° |
| 2026-05-01 15:16 | 53.53276 | 10.07522 | 10878 ft | 315 kts | 349° |
| 2026-05-01 15:16 | 53.57568 | 10.06190 | 10428 ft | 312 kts | 349° |
| 2026-05-01 15:17 | 53.61838 | 10.04866 | 10296 ft | 311 kts | 349° |
| 2026-05-01 15:18 | 53.68141 | 10.02902 | 9226 ft | 306 kts | 349° |
| 2026-05-01 15:18 | 53.70223 | 10.02248 | 8874 ft | 304 kts | 349° |
| 2026-05-01 15:19 | 53.76345 | 10.00328 | 8140 ft | 286 kts | 349° |
| 2026-05-01 15:19 | 53.80063 | 9.99162 | 7650 ft | 263 kts | 349° |
| 2026-05-01 15:19 | 53.81844 | 9.98545 | 7243 ft | 260 kts | 344° |
| 2026-05-01 15:20 | 53.85141 | 9.96229 | 6375 ft | 253 kts | 330° |
| 2026-05-01 15:20 | 53.86708 | 9.94861 | 5908 ft | 253 kts | 331° |
| 2026-05-01 15:20 | 53.88101 | 9.93191 | 5422 ft | 246 kts | 306° |
| 2026-05-01 15:21 | 53.88798 | 9.90806 | 4950 ft | 237 kts | 275° |
| 2026-05-01 15:21 | 53.88657 | 9.88121 | 4424 ft | 227 kts | 242° |
| 2026-05-01 15:21 | 53.87694 | 9.86134 | 4013 ft | 214 kts | 207° |
| 2026-05-01 15:21 | 53.86338 | 9.85411 | 3883 ft | 201 kts | 187° |
| 2026-05-01 15:22 | 53.83684 | 9.84860 | 3621 ft | 182 kts | 184° |
| 2026-05-01 15:22 | 53.82449 | 9.84598 | 3484 ft | 175 kts | 184° |
| 2026-05-01 15:22 | 53.81261 | 9.84577 | 3242 ft | 169 kts | 169° |
| 2026-05-01 15:23 | 53.80134 | 9.85049 | 3045 ft | 166 kts | 159° |
| 2026-05-01 15:23 | 53.79061 | 9.85800 | 3100 ft | 169 kts | 155° |
| 2026-05-01 15:23 | 53.77984 | 9.86665 | 2842 ft | 170 kts | 153° |
| 2026-05-01 15:23 | 53.76932 | 9.87556 | 2607 ft | 169 kts | 152° |
| 2026-05-01 15:24 | 53.75890 | 9.88454 | 2373 ft | 168 kts | 152° |
| 2026-05-01 15:24 | 53.74851 | 9.89355 | 2162 ft | 168 kts | 152° |
| 2026-05-01 15:24 | 53.73811 | 9.90258 | 1940 ft | 168 kts | 153° |
| 2026-05-01 15:24 | 53.72784 | 9.91150 | 1712 ft | 163 kts | 153° |
| 2026-05-01 15:25 | 53.71816 | 9.91998 | 1496 ft | 150 kts | 153° |
| 2026-05-01 15:25 | 53.70920 | 9.92782 | 1269 ft | 140 kts | 153° |
| 2026-05-01 15:25 | 53.70093 | 9.93500 | 1117 ft | 129 kts | 153° |
| 2026-05-01 15:25 | 53.69297 | 9.94194 | 974 ft | 130 kts | 153° |
| 2026-05-01 15:26 | 53.68484 | 9.94890 | 798 ft | 131 kts | 153° |
| 2026-05-01 15:26 | 53.67675 | 9.95600 | 541 ft | 129 kts | 152° |
| 2026-05-01 15:26 | 53.66906 | 9.96266 | 392 ft | 127 kts | 152° |
| 2026-05-01 15:26 | 53.66103 | 9.96957 | 258 ft | 132 kts | 152° |
| 2026-05-01 15:27 | 53.65267 | 9.97673 | 89 ft | 139 kts | 153° |
| 2026-05-01 15:27 | 53.64477 | 9.98353 | 52 ft | 112 kts | 152° |
| 2026-05-01 15:27 | 53.63939 | 9.98819 | 50 ft | 62 kts | 153° |
| 2026-05-01 15:28 | 53.63335 | 9.99369 | 47 ft | 36 kts | 132° |
| 2026-05-01 15:28 | 53.63280 | 9.99629 | 48 ft | 6 kts | 99° |
| 2026-05-01 15:28 | 53.63278 | 9.99649 | 49 ft | 0 kts | 99° |
| 2026-05-01 15:29 | 53.63271 | 9.99698 | 49 ft | 5 kts | 112° |
| 2026-05-01 15:29 | 53.63232 | 9.99749 | 49 ft | 10 kts | 149° |
| 2026-05-01 15:29 | 53.63048 | 9.99913 | 49 ft | 19 kts | 153° |
| 2026-05-01 15:30 | 53.62820 | 10.00095 | 49 ft | 9 kts | 147° |
| 2026-05-01 15:31 | 53.62844 | 10.00214 | 48 ft | 0 kts | 62° |